Romblon, Philippines
Current Conditions -  °F | °C
As of 7:00 AM on Thursday 18 Dec 2014 (Local Time) from RPLL Reporting Station
Scattered Clouds Scattered Clouds  
Wind Chill: 77°   Ceiling: Unl
Heat Index: 79°   Visibility: 6mi
Dew Point: 68°   Wind: 0mph
Humidity: 74%   Direction: NA
Pressure: 29.97"   Gusts: NA
Location:  12.58°N, 122.27°E
Report Text: RPLL 172300Z 00000KT 9999 SCT025 SCT100 25/20 Q1015 NOSIG RMK A2997
Loading
Personal Weather Stations






























Interactive Weather Map New forecast layout! Learn more

10-Day Weather Forecast

Advertisements
Track Severe Weather on mobile